sensor_id;sensor_type;location;lat;lon;timestamp;temperature;humidity
10903;DHT22;5504;47.312;11.060;2022-09-02T00:01:01;15.90;94.00
10903;DHT22;5504;47.312;11.060;2022-09-02T00:03:30;15.90;93.70
10903;DHT22;5504;47.312;11.060;2022-09-02T00:05:56;15.90;94.00
10903;DHT22;5504;47.312;11.060;2022-09-02T00:08:22;15.80;94.00
10903;DHT22;5504;47.312;11.060;2022-09-02T00:10:48;15.70;93.90
10903;DHT22;5504;47.312;11.060;2022-09-02T00:13:15;15.80;93.90
10903;DHT22;5504;47.312;11.060;2022-09-02T00:15:43;15.80;93.90
10903;DHT22;5504;47.312;11.060;2022-09-02T00:18:09;15.80;94.10
10903;DHT22;5504;47.312;11.060;2022-09-02T00:20:38;15.80;94.00
10903;DHT22;5504;47.312;11.060;2022-09-02T00:23:04;15.80;94.10
10903;DHT22;5504;47.312;11.060;2022-09-02T00:25:30;15.70;93.90
10903;DHT22;5504;47.312;11.060;2022-09-02T00:27:56;15.70;94.30
10903;DHT22;5504;47.312;11.060;2022-09-02T00:30:22;15.70;93.90
10903;DHT22;5504;47.312;11.060;2022-09-02T00:32:48;15.70;94.00
10903;DHT22;5504;47.312;11.060;2022-09-02T00:35:14;15.60;94.10
10903;DHT22;5504;47.312;11.060;2022-09-02T00:37:40;15.60;94.00
10903;DHT22;5504;47.312;11.060;2022-09-02T00:40:06;15.60;93.70
10903;DHT22;5504;47.312;11.060;2022-09-02T00:42:33;15.50;93.90
10903;DHT22;5504;47.312;11.060;2022-09-02T00:45:00;15.40;93.60
10903;DHT22;5504;47.312;11.060;2022-09-02T00:47:27;15.40;93.70
10903;DHT22;5504;47.312;11.060;2022-09-02T00:49:54;15.30;93.70
10903;DHT22;5504;47.312;11.060;2022-09-02T00:52:36;15.30;93.70
10903;DHT22;5504;47.312;11.060;2022-09-02T00:57:44;15.20;93.70
10903;DHT22;5504;47.312;11.060;2022-09-02T01:00:24;15.10;93.70
10903;DHT22;5504;47.312;11.060;2022-09-02T01:02:54;15.00;93.60
10903;DHT22;5504;47.312;11.060;2022-09-02T01:05:22;14.80;94.00
10903;DHT22;5504;47.312;11.060;2022-09-02T01:07:49;14.70;93.90
10903;DHT22;5504;47.312;11.060;2022-09-02T01:10:19;14.70;94.00
10903;DHT22;5504;47.312;11.060;2022-09-02T01:12:46;14.60;94.10
10903;DHT22;5504;47.312;11.060;2022-09-02T01:15:13;14.60;94.10
10903;DHT22;5504;47.312;11.060;2022-09-02T01:17:42;14.60;94.40
10903;DHT22;5504;47.312;11.060;2022-09-02T01:20:14;14.50;94.10
10903;DHT22;5504;47.312;11.060;2022-09-02T01:22:41;14.40;94.30
10903;DHT22;5504;47.312;11.060;2022-09-02T01:25:16;14.50;94.40
10903;DHT22;5504;47.312;11.060;2022-09-02T01:27:42;14.40;94.10
10903;DHT22;5504;47.312;11.060;2022-09-02T01:30:11;14.40;94.10
10903;DHT22;5504;47.312;11.060;2022-09-02T01:32:38;14.30;94.20
10903;DHT22;5504;47.312;11.060;2022-09-02T01:35:04;14.30;94.00
10903;DHT22;5504;47.312;11.060;2022-09-02T01:37:30;14.20;93.80
10903;DHT22;5504;47.312;11.060;2022-09-02T01:39:57;14.20;93.90
10903;DHT22;5504;47.312;11.060;2022-09-02T01:42:23;14.20;94.10
10903;DHT22;5504;47.312;11.060;2022-09-02T01:44:49;14.20;94.20
10903;DHT22;5504;47.312;11.060;2022-09-02T01:47:22;14.20;94.10
10903;DHT22;5504;47.312;11.060;2022-09-02T01:49:48;14.00;93.90
10903;DHT22;5504;47.312;11.060;2022-09-02T01:52:15;14.00;94.10
10903;DHT22;5504;47.312;11.060;2022-09-02T01:54:41;14.00;94.10
10903;DHT22;5504;47.312;11.060;2022-09-02T01:57:07;14.00;94.10
10903;DHT22;5504;47.312;11.060;2022-09-02T01:59:33;14.00;94.00
10903;DHT22;5504;47.312;11.060;2022-09-02T02:01:59;13.90;94.00
10903;DHT22;5504;47.312;11.060;2022-09-02T02:04:24;13.80;94.10
10903;DHT22;5504;47.312;11.060;2022-09-02T02:06:51;13.80;94.20
10903;DHT22;5504;47.312;11.060;2022-09-02T02:09:17;13.80;94.00
10903;DHT22;5504;47.312;11.060;2022-09-02T02:11:43;13.70;94.00
10903;DHT22;5504;47.312;11.060;2022-09-02T02:14:09;13.70;94.00
10903;DHT22;5504;47.312;11.060;2022-09-02T02:16:35;13.70;93.90
10903;DHT22;5504;47.312;11.060;2022-09-02T02:19:01;13.70;93.90
10903;DHT22;5504;47.312;11.060;2022-09-02T02:21:26;13.60;93.80
10903;DHT22;5504;47.312;11.060;2022-09-02T02:23:53;13.60;93.90
10903;DHT22;5504;47.312;11.060;2022-09-02T02:26:19;13.60;93.90
10903;DHT22;5504;47.312;11.060;2022-09-02T02:28:44;13.60;94.00
10903;DHT22;5504;47.312;11.060;2022-09-02T02:31:10;13.50;93.80
10903;DHT22;5504;47.312;11.060;2022-09-02T02:33:37;13.50;93.70
10903;DHT22;5504;47.312;11.060;2022-09-02T02:36:04;13.50;93.80
10903;DHT22;5504;47.312;11.060;2022-09-02T02:38:32;13.40;93.90
10903;DHT22;5504;47.312;11.060;2022-09-02T02:40:58;13.40;94.00
10903;DHT22;5504;47.312;11.060;2022-09-02T02:43:25;13.40;94.20
10903;DHT22;5504;47.312;11.060;2022-09-02T02:45:51;13.20;94.30
10903;DHT22;5504;47.312;11.060;2022-09-02T02:48:17;13.20;94.30
10903;DHT22;5504;47.312;11.060;2022-09-02T02:50:43;13.10;94.10
10903;DHT22;5504;47.312;11.060;2022-09-02T02:53:09;13.00;94.30
10903;DHT22;5504;47.312;11.060;2022-09-02T02:55:37;13.10;94.40
10903;DHT22;5504;47.312;11.060;2022-09-02T02:58:04;13.00;94.40
10903;DHT22;5504;47.312;11.060;2022-09-02T03:00:32;13.00;94.50
10903;DHT22;5504;47.312;11.060;2022-09-02T03:03:04;13.00;94.30
10903;DHT22;5504;47.312;11.060;2022-09-02T03:05:31;13.00;94.30
10903;DHT22;5504;47.312;11.060;2022-09-02T03:07:58;12.90;94.20
10903;DHT22;5504;47.312;11.060;2022-09-02T03:10:24;12.90;94.30
10903;DHT22;5504;47.312;11.060;2022-09-02T03:12:50;12.90;94.30
10903;DHT22;5504;47.312;11.060;2022-09-02T03:15:18;12.90;94.10
10903;DHT22;5504;47.312;11.060;2022-09-02T03:17:47;13.00;94.20
10903;DHT22;5504;47.312;11.060;2022-09-02T03:20:14;13.00;94.20
10903;DHT22;5504;47.312;11.060;2022-09-02T03:22:43;12.90;94.20
10903;DHT22;5504;47.312;11.060;2022-09-02T03:25:11;12.80;94.20
10903;DHT22;5504;47.312;11.060;2022-09-02T03:27:39;12.70;94.50
10903;DHT22;5504;47.312;11.060;2022-09-02T03:30:09;12.60;94.60
10903;DHT22;5504;47.312;11.060;2022-09-02T03:32:36;12.60;94.60
10903;DHT22;5504;47.312;11.060;2022-09-02T03:35:04;12.60;94.50
10903;DHT22;5504;47.312;11.060;2022-09-02T03:37:32;12.60;94.60
10903;DHT22;5504;47.312;11.060;2022-09-02T03:40:08;12.60;94.50
10903;DHT22;5504;47.312;11.060;2022-09-02T03:42:34;12.60;94.70
10903;DHT22;5504;47.312;11.060;2022-09-02T03:45:00;12.60;94.60
10903;DHT22;5504;47.312;11.060;2022-09-02T03:47:26;12.50;94.40
10903;DHT22;5504;47.312;11.060;2022-09-02T03:49:54;12.60;94.50
10903;DHT22;5504;47.312;11.060;2022-09-02T03:52:20;12.60;94.50
10903;DHT22;5504;47.312;11.060;2022-09-02T03:54:46;12.50;94.60
10903;DHT22;5504;47.312;11.060;2022-09-02T03:57:12;12.50;94.60
10903;DHT22;5504;47.312;11.060;2022-09-02T03:59:38;12.50;94.70
10903;DHT22;5504;47.312;11.060;2022-09-02T04:02:04;12.40;94.40
10903;DHT22;5504;47.312;11.060;2022-09-02T04:04:30;12.30;94.70
10903;DHT22;5504;47.312;11.060;2022-09-02T04:06:56;12.30;94.70
10903;DHT22;5504;47.312;11.060;2022-09-02T04:09:23;12.40;94.90
10903;DHT22;5504;47.312;11.060;2022-09-02T04:11:49;12.40;94.80
10903;DHT22;5504;47.312;11.060;2022-09-02T04:14:14;12.40;94.90
10903;DHT22;5504;47.312;11.060;2022-09-02T04:16:40;12.50;94.80
10903;DHT22;5504;47.312;11.060;2022-09-02T04:19:06;12.40;94.80
10903;DHT22;5504;47.312;11.060;2022-09-02T04:21:36;12.40;94.70
10903;DHT22;5504;47.312;11.060;2022-09-02T04:24:07;12.40;94.70
10903;DHT22;5504;47.312;11.060;2022-09-02T04:26:34;12.40;94.60
10903;DHT22;5504;47.312;11.060;2022-09-02T04:29:00;12.40;94.50
10903;DHT22;5504;47.312;11.060;2022-09-02T04:31:26;12.40;94.50
10903;DHT22;5504;47.312;11.060;2022-09-02T04:33:54;12.30;94.40
10903;DHT22;5504;47.312;11.060;2022-09-02T04:36:21;12.30;94.50
10903;DHT22;5504;47.312;11.060;2022-09-02T04:38:48;12.30;94.60
10903;DHT22;5504;47.312;11.060;2022-09-02T04:41:18;12.30;94.90
10903;DHT22;5504;47.312;11.060;2022-09-02T04:43:46;12.20;94.90
10903;DHT22;5504;47.312;11.060;2022-09-02T04:46:13;12.10;95.20
10903;DHT22;5504;47.312;11.060;2022-09-02T04:48:39;11.90;95.40
10903;DHT22;5504;47.312;11.060;2022-09-02T04:51:06;11.90;95.30
10903;DHT22;5504;47.312;11.060;2022-09-02T04:53:33;11.80;95.40
10903;DHT22;5504;47.312;11.060;2022-09-02T04:55:59;11.90;95.40
10903;DHT22;5504;47.312;11.060;2022-09-02T04:58:25;11.80;95.70
10903;DHT22;5504;47.312;11.060;2022-09-02T05:00:52;11.80;95.80
10903;DHT22;5504;47.312;11.060;2022-09-02T05:03:17;11.90;95.80
10903;DHT22;5504;47.312;11.060;2022-09-02T05:05:44;11.90;95.90
10903;DHT22;5504;47.312;11.060;2022-09-02T05:08:12;11.90;95.80
10903;DHT22;5504;47.312;11.060;2022-09-02T05:10:38;11.90;95.40
10903;DHT22;5504;47.312;11.060;2022-09-02T05:13:04;11.80;95.70
10903;DHT22;5504;47.312;11.060;2022-09-02T05:15:30;11.70;95.50
10903;DHT22;5504;47.312;11.060;2022-09-02T05:17:57;11.70;95.80
10903;DHT22;5504;47.312;11.060;2022-09-02T05:20:22;11.80;95.90
10903;DHT22;5504;47.312;11.060;2022-09-02T05:22:48;11.90;96.10
10903;DHT22;5504;47.312;11.060;2022-09-02T05:25:15;12.00;96.10
10903;DHT22;5504;47.312;11.060;2022-09-02T05:27:40;11.80;95.80
10903;DHT22;5504;47.312;11.060;2022-09-02T05:30:06;11.80;96.10
10903;DHT22;5504;47.312;11.060;2022-09-02T05:32:32;11.80;96.20
10903;DHT22;5504;47.312;11.060;2022-09-02T05:34:59;11.80;96.00
10903;DHT22;5504;47.312;11.060;2022-09-02T05:37:25;11.80;96.40
10903;DHT22;5504;47.312;11.060;2022-09-02T05:39:51;11.80;96.50
10903;DHT22;5504;47.312;11.060;2022-09-02T05:42:17;11.90;96.30
10903;DHT22;5504;47.312;11.060;2022-09-02T05:44:45;12.00;96.60
10903;DHT22;5504;47.312;11.060;2022-09-02T05:47:11;12.10;96.60
10903;DHT22;5504;47.312;11.060;2022-09-02T05:49:37;12.30;96.50
10903;DHT22;5504;47.312;11.060;2022-09-02T05:52:03;12.40;96.40
10903;DHT22;5504;47.312;11.060;2022-09-02T05:54:35;12.60;96.30
10903;DHT22;5504;47.312;11.060;2022-09-02T05:57:05;12.60;95.90
10903;DHT22;5504;47.312;11.060;2022-09-02T05:59:33;12.50;96.40
10903;DHT22;5504;47.312;11.060;2022-09-02T06:02:04;12.70;97.00
10903;DHT22;5504;47.312;11.060;2022-09-02T06:04:30;13.00;97.20
10903;DHT22;5504;47.312;11.060;2022-09-02T06:06:57;13.30;96.90
10903;DHT22;5504;47.312;11.060;2022-09-02T06:09:23;13.70;96.60
10903;DHT22;5504;47.312;11.060;2022-09-02T06:11:50;14.10;96.30
10903;DHT22;5504;47.312;11.060;2022-09-02T06:14:18;14.60;95.50
10903;DHT22;5504;47.312;11.060;2022-09-02T06:16:45;15.00;94.70
10903;DHT22;5504;47.312;11.060;2022-09-02T06:19:11;15.40;94.00
10903;DHT22;5504;47.312;11.060;2022-09-02T06:21:38;15.60;93.10
10903;DHT22;5504;47.312;11.060;2022-09-02T06:24:05;15.30;92.60
10903;DHT22;5504;47.312;11.060;2022-09-02T06:26:32;15.60;92.60
10903;DHT22;5504;47.312;11.060;2022-09-02T06:28:57;16.10;92.30
10903;DHT22;5504;47.312;11.060;2022-09-02T06:31:23;15.90;91.40
10903;DHT22;5504;47.312;11.060;2022-09-02T06:33:52;16.20;91.70
10903;DHT22;5504;47.312;11.060;2022-09-02T06:36:20;16.50;91.80
10903;DHT22;5504;47.312;11.060;2022-09-02T06:38:50;16.40;92.00
10903;DHT22;5504;47.312;11.060;2022-09-02T06:41:19;16.30;90.60
10903;DHT22;5504;47.312;11.060;2022-09-02T06:43:48;16.40;91.10
10903;DHT22;5504;47.312;11.060;2022-09-02T06:46:15;16.70;90.30
10903;DHT22;5504;47.312;11.060;2022-09-02T06:48:41;17.10;91.10
10903;DHT22;5504;47.312;11.060;2022-09-02T06:51:07;17.50;90.30
10903;DHT22;5504;47.312;11.060;2022-09-02T06:53:33;17.90;88.40
10903;DHT22;5504;47.312;11.060;2022-09-02T06:55:59;18.20;86.70
10903;DHT22;5504;47.312;11.060;2022-09-02T06:58:24;18.50;90.10
10903;DHT22;5504;47.312;11.060;2022-09-02T07:00:50;18.50;86.30
10903;DHT22;5504;47.312;11.060;2022-09-02T07:03:16;18.10;84.60
10903;DHT22;5504;47.312;11.060;2022-09-02T07:06:09;18.30;86.70
10903;DHT22;5504;47.312;11.060;2022-09-02T07:08:40;18.80;87.40
10903;DHT22;5504;47.312;11.060;2022-09-02T07:11:14;18.60;82.80
10903;DHT22;5504;47.312;11.060;2022-09-02T07:13:40;18.80;87.80
10903;DHT22;5504;47.312;11.060;2022-09-02T07:16:05;19.10;86.00
10903;DHT22;5504;47.312;11.060;2022-09-02T07:18:33;19.40;84.80
10903;DHT22;5504;47.312;11.060;2022-09-02T07:20:59;19.40;82.20
10903;DHT22;5504;47.312;11.060;2022-09-02T07:23:25;19.80;81.70
10903;DHT22;5504;47.312;11.060;2022-09-02T07:25:51;20.00;82.40
10903;DHT22;5504;47.312;11.060;2022-09-02T07:28:19;20.40;78.50
10903;DHT22;5504;47.312;11.060;2022-09-02T07:30:45;19.70;78.80
10903;DHT22;5504;47.312;11.060;2022-09-02T07:33:11;20.10;82.80
10903;DHT22;5504;47.312;11.060;2022-09-02T07:35:42;21.10;80.60
10903;DHT22;5504;47.312;11.060;2022-09-02T07:38:08;21.70;79.60
10903;DHT22;5504;47.312;11.060;2022-09-02T07:40:34;22.30;75.30
10903;DHT22;5504;47.312;11.060;2022-09-02T07:43:05;21.90;74.60
10903;DHT22;5504;47.312;11.060;2022-09-02T07:45:32;22.30;76.90
10903;DHT22;5504;47.312;11.060;2022-09-02T07:47:59;22.80;76.60
10903;DHT22;5504;47.312;11.060;2022-09-02T07:50:25;23.40;74.40
10903;DHT22;5504;47.312;11.060;2022-09-02T07:52:56;22.80;71.80
10903;DHT22;5504;47.312;11.060;2022-09-02T07:55:23;22.70;74.20
10903;DHT22;5504;47.312;11.060;2022-09-02T07:57:51;22.70;73.40
10903;DHT22;5504;47.312;11.060;2022-09-02T08:00:20;22.00;70.70
10903;DHT22;5504;47.312;11.060;2022-09-02T08:02:48;21.80;77.90
10903;DHT22;5504;47.312;11.060;2022-09-02T08:05:14;21.50;71.10
10903;DHT22;5504;47.312;11.060;2022-09-02T08:07:40;21.30;73.30
10903;DHT22;5504;47.312;11.060;2022-09-02T08:10:07;22.30;76.90
10903;DHT22;5504;47.312;11.060;2022-09-02T08:12:35;21.70;70.10
10903;DHT22;5504;47.312;11.060;2022-09-02T08:15:02;21.50;73.00
10903;DHT22;5504;47.312;11.060;2022-09-02T08:17:28;21.70;72.20
10903;DHT22;5504;47.312;11.060;2022-09-02T08:19:54;22.30;74.20
10903;DHT22;5504;47.312;11.060;2022-09-02T08:22:19;23.10;72.30
10903;DHT22;5504;47.312;11.060;2022-09-02T08:24:45;22.90;70.40
10903;DHT22;5504;47.312;11.060;2022-09-02T08:27:11;23.60;72.30
10903;DHT22;5504;47.312;11.060;2022-09-02T08:29:36;24.20;70.60
10903;DHT22;5504;47.312;11.060;2022-09-02T08:32:02;24.10;64.90
10903;DHT22;5504;47.312;11.060;2022-09-02T08:34:28;22.80;68.40
10903;DHT22;5504;47.312;11.060;2022-09-02T08:36:54;23.70;73.60
10903;DHT22;5504;47.312;11.060;2022-09-02T08:39:20;24.60;71.90
10903;DHT22;5504;47.312;11.060;2022-09-02T08:42:01;25.10;69.80
10903;DHT22;5504;47.312;11.060;2022-09-02T08:44:33;24.80;63.80
10903;DHT22;5504;47.312;11.060;2022-09-02T08:47:02;22.90;67.80
10903;DHT22;5504;47.312;11.060;2022-09-02T08:49:37;22.90;68.20
10903;DHT22;5504;47.312;11.060;2022-09-02T08:52:04;23.60;73.20
10903;DHT22;5504;47.312;11.060;2022-09-02T08:54:35;23.70;65.30
10903;DHT22;5504;47.312;11.060;2022-09-02T08:57:02;24.00;63.90
10903;DHT22;5504;47.312;11.060;2022-09-02T08:59:29;24.50;65.50
10903;DHT22;5504;47.312;11.060;2022-09-02T09:07:50;25.40;65.90
10903;DHT22;5504;47.312;11.060;2022-09-02T09:13:46;24.90;61.90
10903;DHT22;5504;47.312;11.060;2022-09-02T09:16:29;24.90;61.40
10903;DHT22;5504;47.312;11.060;2022-09-02T09:22:02;26.30;67.90
10903;DHT22;5504;47.312;11.060;2022-09-02T09:27:00;28.20;61.20
10903;DHT22;5504;47.312;11.060;2022-09-02T09:29:33;27.50;57.70
10903;DHT22;5504;47.312;11.060;2022-09-02T09:32:01;26.90;60.60
10903;DHT22;5504;47.312;11.060;2022-09-02T09:37:34;26.10;59.40
10903;DHT22;5504;47.312;11.060;2022-09-02T09:40:00;26.30;61.00
10903;DHT22;5504;47.312;11.060;2022-09-02T09:42:32;27.40;62.00
10903;DHT22;5504;47.312;11.060;2022-09-02T09:44:59;28.10;62.40
10903;DHT22;5504;47.312;11.060;2022-09-02T09:47:25;27.60;56.00
10903;DHT22;5504;47.312;11.060;2022-09-02T09:49:53;27.40;60.80
10903;DHT22;5504;47.312;11.060;2022-09-02T09:52:32;27.40;56.70
10903;DHT22;5504;47.312;11.060;2022-09-02T09:55:14;27.40;59.90
10903;DHT22;5504;47.312;11.060;2022-09-02T09:57:42;27.80;59.50
10903;DHT22;5504;47.312;11.060;2022-09-02T10:02:45;27.50;59.30
10903;DHT22;5504;47.312;11.060;2022-09-02T10:05:31;27.30;55.80
10903;DHT22;5504;47.312;11.060;2022-09-02T10:07:59;26.90;60.60
10903;DHT22;5504;47.312;11.060;2022-09-02T10:10:28;26.70;55.50
10903;DHT22;5504;47.312;11.060;2022-09-02T10:12:57;26.60;55.40
10903;DHT22;5504;47.312;11.060;2022-09-02T10:15:33;26.10;55.30
10903;DHT22;5504;47.312;11.060;2022-09-02T10:21:07;26.60;56.30
10903;DHT22;5504;47.312;11.060;2022-09-02T10:31:31;27.20;56.60
10903;DHT22;5504;47.312;11.060;2022-09-02T10:42:07;26.30;57.20
10903;DHT22;5504;47.312;11.060;2022-09-02T10:47:36;29.10;54.20
10903;DHT22;5504;47.312;11.060;2022-09-02T10:50:23;29.90;54.90
10903;DHT22;5504;47.312;11.060;2022-09-02T10:55:42;29.80;47.10
10903;DHT22;5504;47.312;11.060;2022-09-02T10:58:24;27.80;48.40
10903;DHT22;5504;47.312;11.060;2022-09-02T11:00:55;28.20;53.10
10903;DHT22;5504;47.312;11.060;2022-09-02T11:03:28;28.40;51.00
10903;DHT22;5504;47.312;11.060;2022-09-02T11:06:06;28.80;53.00
10903;DHT22;5504;47.312;11.060;2022-09-02T11:08:52;29.00;52.60
10903;DHT22;5504;47.312;11.060;2022-09-02T11:11:50;28.60;50.80
10903;DHT22;5504;47.312;11.060;2022-09-02T11:23:01;27.90;47.90
10903;DHT22;5504;47.312;11.060;2022-09-02T11:25:37;28.60;53.60
10903;DHT22;5504;47.312;11.060;2022-09-02T11:33:47;29.30;51.30
10903;DHT22;5504;47.312;11.060;2022-09-02T11:36:16;29.00;47.70
10903;DHT22;5504;47.312;11.060;2022-09-02T11:39:06;29.60;54.60
10903;DHT22;5504;47.312;11.060;2022-09-02T11:55:36;29.70;50.40
10903;DHT22;5504;47.312;11.060;2022-09-02T11:58:03;30.40;50.40
10903;DHT22;5504;47.312;11.060;2022-09-02T12:03:19;29.40;54.20
10903;DHT22;5504;47.312;11.060;2022-09-02T12:05:48;30.20;52.60
10903;DHT22;5504;47.312;11.060;2022-09-02T12:08:54;30.00;51.80
10903;DHT22;5504;47.312;11.060;2022-09-02T12:17:04;29.60;51.80
10903;DHT22;5504;47.312;11.060;2022-09-02T12:19:44;28.30;51.40
10903;DHT22;5504;47.312;11.060;2022-09-02T12:27:27;28.00;52.30
10903;DHT22;5504;47.312;11.060;2022-09-02T12:29:54;27.50;53.40
10903;DHT22;5504;47.312;11.060;2022-09-02T12:33:01;28.10;53.40
10903;DHT22;5504;47.312;11.060;2022-09-02T12:35:49;28.60;54.80
10903;DHT22;5504;47.312;11.060;2022-09-02T12:38:39;28.80;55.00
10903;DHT22;5504;47.312;11.060;2022-09-02T12:46:45;29.00;56.10
10903;DHT22;5504;47.312;11.060;2022-09-02T12:49:37;29.40;55.10
10903;DHT22;5504;47.312;11.060;2022-09-02T12:52:11;29.60;55.30
10903;DHT22;5504;47.312;11.060;2022-09-02T12:54:47;28.90;51.90
10903;DHT22;5504;47.312;11.060;2022-09-02T12:57:17;29.50;54.60
10903;DHT22;5504;47.312;11.060;2022-09-02T12:59:45;29.60;53.20
10903;DHT22;5504;47.312;11.060;2022-09-02T13:05:37;29.70;54.10
10903;DHT22;5504;47.312;11.060;2022-09-02T13:25:56;28.10;54.00
10903;DHT22;5504;47.312;11.060;2022-09-02T13:33:41;27.10;56.60
10903;DHT22;5504;47.312;11.060;2022-09-02T13:36:07;26.90;56.60
10903;DHT22;5504;47.312;11.060;2022-09-02T13:38:33;26.80;57.30
10903;DHT22;5504;47.312;11.060;2022-09-02T13:40:58;26.80;56.70
10903;DHT22;5504;47.312;11.060;2022-09-02T13:43:25;26.80;56.50
10903;DHT22;5504;47.312;11.060;2022-09-02T13:45:59;27.10;57.40
10903;DHT22;5504;47.312;11.060;2022-09-02T13:48:31;27.40;56.60
10903;DHT22;5504;47.312;11.060;2022-09-02T13:51:01;27.90;57.00
10903;DHT22;5504;47.312;11.060;2022-09-02T13:53:41;28.10;55.50
10903;DHT22;5504;47.312;11.060;2022-09-02T13:56:10;28.10;54.70
10903;DHT22;5504;47.312;11.060;2022-09-02T13:58:40;28.20;55.30
10903;DHT22;5504;47.312;11.060;2022-09-02T14:01:27;28.40;55.80
10903;DHT22;5504;47.312;11.060;2022-09-02T14:03:55;28.40;55.40
10903;DHT22;5504;47.312;11.060;2022-09-02T14:06:34;28.50;55.10
10903;DHT22;5504;47.312;11.060;2022-09-02T14:09:06;28.50;55.30
10903;DHT22;5504;47.312;11.060;2022-09-02T14:11:39;28.40;55.90
10903;DHT22;5504;47.312;11.060;2022-09-02T14:14:06;27.70;54.90
10903;DHT22;5504;47.312;11.060;2022-09-02T14:16:34;28.10;56.80
10903;DHT22;5504;47.312;11.060;2022-09-02T14:19:06;28.20;54.10
10903;DHT22;5504;47.312;11.060;2022-09-02T14:21:32;28.20;54.00
10903;DHT22;5504;47.312;11.060;2022-09-02T14:23:58;28.20;54.40
10903;DHT22;5504;47.312;11.060;2022-09-02T14:26:36;28.30;56.00
10903;DHT22;5504;47.312;11.060;2022-09-02T14:29:06;28.30;54.80
10903;DHT22;5504;47.312;11.060;2022-09-02T14:31:32;28.20;53.10
10903;DHT22;5504;47.312;11.060;2022-09-02T14:34:02;28.10;54.20
10903;DHT22;5504;47.312;11.060;2022-09-02T14:38:56;28.10;53.40
10903;DHT22;5504;47.312;11.060;2022-09-02T14:41:24;28.00;53.60
10903;DHT22;5504;47.312;11.060;2022-09-02T14:44:08;28.00;53.70
10903;DHT22;5504;47.312;11.060;2022-09-02T14:46:38;28.00;54.40
10903;DHT22;5504;47.312;11.060;2022-09-02T14:49:21;28.00;53.60
10903;DHT22;5504;47.312;11.060;2022-09-02T14:51:49;27.80;54.70
10903;DHT22;5504;47.312;11.060;2022-09-02T14:54:40;27.90;54.50
10903;DHT22;5504;47.312;11.060;2022-09-02T14:57:23;27.60;53.50
10903;DHT22;5504;47.312;11.060;2022-09-02T14:59:50;27.50;56.10
10903;DHT22;5504;47.312;11.060;2022-09-02T15:02:29;27.50;54.80
10903;DHT22;5504;47.312;11.060;2022-09-02T15:05:02;27.30;53.90
10903;DHT22;5504;47.312;11.060;2022-09-02T15:07:28;27.00;53.80
10903;DHT22;5504;47.312;11.060;2022-09-02T15:09:54;26.80;54.10
10903;DHT22;5504;47.312;11.060;2022-09-02T15:12:23;26.50;54.30
10903;DHT22;5504;47.312;11.060;2022-09-02T15:14:51;26.60;55.50
10903;DHT22;5504;47.312;11.060;2022-09-02T15:17:17;26.80;55.70
10903;DHT22;5504;47.312;11.060;2022-09-02T15:19:43;26.50;55.50
10903;DHT22;5504;47.312;11.060;2022-09-02T15:22:08;26.20;55.10
10903;DHT22;5504;47.312;11.060;2022-09-02T15:24:34;26.10;54.40
10903;DHT22;5504;47.312;11.060;2022-09-02T15:27:00;26.00;54.90
10903;DHT22;5504;47.312;11.060;2022-09-02T15:29:25;25.90;55.40
10903;DHT22;5504;47.312;11.060;2022-09-02T15:31:52;25.90;56.30
10903;DHT22;5504;47.312;11.060;2022-09-02T15:34:19;26.10;56.80
10903;DHT22;5504;47.312;11.060;2022-09-02T15:36:45;26.30;56.60
10903;DHT22;5504;47.312;11.060;2022-09-02T15:39:11;26.40;55.60
10903;DHT22;5504;47.312;11.060;2022-09-02T15:41:36;26.50;55.20
10903;DHT22;5504;47.312;11.060;2022-09-02T15:44:04;26.50;55.90
10903;DHT22;5504;47.312;11.060;2022-09-02T15:46:34;26.30;53.60
10903;DHT22;5504;47.312;11.060;2022-09-02T15:49:04;26.20;55.10
10903;DHT22;5504;47.312;11.060;2022-09-02T15:51:31;26.10;54.80
10903;DHT22;5504;47.312;11.060;2022-09-02T15:54:03;26.10;53.60
10903;DHT22;5504;47.312;11.060;2022-09-02T15:56:30;25.70;52.30
10903;DHT22;5504;47.312;11.060;2022-09-02T15:59:07;25.60;55.60
10903;DHT22;5504;47.312;11.060;2022-09-02T16:01:39;25.60;55.20
10903;DHT22;5504;47.312;11.060;2022-09-02T16:04:05;25.30;53.90
10903;DHT22;5504;47.312;11.060;2022-09-02T16:06:33;25.50;55.00
10903;DHT22;5504;47.312;11.060;2022-09-02T16:09:01;25.20;52.90
10903;DHT22;5504;47.312;11.060;2022-09-02T16:11:27;25.10;54.10
10903;DHT22;5504;47.312;11.060;2022-09-02T16:13:53;25.20;54.60
10903;DHT22;5504;47.312;11.060;2022-09-02T16:16:19;25.10;55.60
10903;DHT22;5504;47.312;11.060;2022-09-02T16:18:49;25.20;55.80
10903;DHT22;5504;47.312;11.060;2022-09-02T16:21:19;25.10;57.20
10903;DHT22;5504;47.312;11.060;2022-09-02T16:23:45;25.10;57.00
10903;DHT22;5504;47.312;11.060;2022-09-02T16:28:52;24.80;57.70
10903;DHT22;5504;47.312;11.060;2022-09-02T16:31:19;24.60;58.70
10903;DHT22;5504;47.312;11.060;2022-09-02T16:33:59;24.50;60.00
10903;DHT22;5504;47.312;11.060;2022-09-02T16:36:27;24.40;59.80
10903;DHT22;5504;47.312;11.060;2022-09-02T16:38:54;24.30;59.10
10903;DHT22;5504;47.312;11.060;2022-09-02T16:41:28;24.30;60.20
10903;DHT22;5504;47.312;11.060;2022-09-02T16:43:56;24.10;61.20
10903;DHT22;5504;47.312;11.060;2022-09-02T16:46:22;24.10;62.40
10903;DHT22;5504;47.312;11.060;2022-09-02T16:48:48;24.00;63.10
10903;DHT22;5504;47.312;11.060;2022-09-02T16:51:14;23.90;62.60
10903;DHT22;5504;47.312;11.060;2022-09-02T16:53:41;23.90;62.80
10903;DHT22;5504;47.312;11.060;2022-09-02T16:56:11;23.80;62.70
10903;DHT22;5504;47.312;11.060;2022-09-02T16:58:37;23.90;63.70
10903;DHT22;5504;47.312;11.060;2022-09-02T17:01:04;23.80;64.20
10903;DHT22;5504;47.312;11.060;2022-09-02T17:03:35;23.80;64.00
10903;DHT22;5504;47.312;11.060;2022-09-02T17:06:01;23.80;64.90
10903;DHT22;5504;47.312;11.060;2022-09-02T17:08:27;23.70;64.70
10903;DHT22;5504;47.312;11.060;2022-09-02T17:13:48;23.80;65.00
10903;DHT22;5504;47.312;11.060;2022-09-02T17:16:15;23.40;65.70
10903;DHT22;5504;47.312;11.060;2022-09-02T17:18:40;23.20;66.90
10903;DHT22;5504;47.312;11.060;2022-09-02T17:21:37;23.30;67.80
10903;DHT22;5504;47.312;11.060;2022-09-02T17:24:05;23.30;70.00
10903;DHT22;5504;47.312;11.060;2022-09-02T17:26:33;23.10;65.30
10903;DHT22;5504;47.312;11.060;2022-09-02T17:29:00;22.80;69.10
10903;DHT22;5504;47.312;11.060;2022-09-02T17:31:30;22.50;71.90
10903;DHT22;5504;47.312;11.060;2022-09-02T17:34:02;22.30;71.50
10903;DHT22;5504;47.312;11.060;2022-09-02T17:36:30;22.30;71.30
10903;DHT22;5504;47.312;11.060;2022-09-02T17:39:03;22.40;72.60
10903;DHT22;5504;47.312;11.060;2022-09-02T17:41:28;22.40;73.40
10903;DHT22;5504;47.312;11.060;2022-09-02T17:44:14;22.40;71.30
10903;DHT22;5504;47.312;11.060;2022-09-02T17:46:41;22.40;68.70
10903;DHT22;5504;47.312;11.060;2022-09-02T17:49:07;22.40;68.20
10903;DHT22;5504;47.312;11.060;2022-09-02T17:51:33;22.30;67.90